Time,TemperatureF,DewpointF,PressureIn,WindDirection,WindDirectionDegrees,WindSpeedMPH,WindSpeedGustMPH,Humidity,HourlyPrecipIn,Conditions,Clouds,dailyrainin,SolarRadiationWatts/m^2,SoftwareType,DateUTC
2015-08-02 00:02:00,71.4,58.6,29.90,North,0,0.0,0.0,64,0.00,CLR,,0.00,0.0,WeatherDisplay:10.37,2015-08-02 04:02:00,
2015-08-02 00:07:00,71.1,58.7,29.90,North,0,0.0,0.0,65,0.00,CLR,,0.00,0.0,WeatherDisplay:10.37,2015-08-02 04:07:00,
2015-08-02 00:12:00,70.9,58.5,29.90,North,0,0.0,0.0,65,0.00,CLR,,0.00,0.0,WeatherDisplay:10.37,2015-08-02 04:12:00,
2015-08-02 00:17:00,70.7,58.8,29.90,SW,225,0.0,0.0,66,0.00,CLR,,0.00,0.0,WeatherDisplay:10.37,2015-08-02 04:17:00,
2015-08-02 00:22:00,70.5,59.0,29.90,SW,225,1.2,0.0,67,0.00,CLR,,0.00,0.0,WeatherDisplay:10.37,2015-08-02 04:22:00,
2015-08-02 00:27:00,70.2,59.1,29.90,South,180,1.2,0.0,68,0.00,CLR,,0.00,0.0,WeatherDisplay:10.37,2015-08-02 04:27:00,
2015-08-02 00:32:00,70.2,59.1,29.90,South,180,1.2,0.0,68,0.00,CLR,,0.00,0.0,WeatherDisplay:10.37,2015-08-02 04:32:00,
2015-08-02 00:37:00,70.0,58.9,29.90,South,180,0.0,0.0,68,0.00,CLR,,0.00,0.0,WeatherDisplay:10.37,2015-08-02 04:37:00,
2015-08-02 00:42:00,69.6,59.0,29.91,South,180,0.0,0.0,69,0.00,CLR,,0.00,0.0,WeatherDisplay:10.37,2015-08-02 04:42:00,
2015-08-02 00:47:00,69.3,59.1,29.91,ESE,112,1.2,1.2,70,0.00,CLR,,0.00,0.0,WeatherDisplay:10.37,2015-08-02 04:47:00,
2015-08-02 00:52:00,69.3,59.5,29.90,South,180,0.0,0.0,71,0.00,CLR,,0.00,0.0,WeatherDisplay:10.37,2015-08-02 04:52:00,
2015-08-02 00:57:00,69.3,59.1,29.90,South,180,0.0,0.0,70,0.00,CLR,,0.00,0.0,WeatherDisplay:10.37,2015-08-02 04:57:00,
2015-08-02 01:02:00,68.9,58.7,29.90,South,180,0.0,0.0,70,0.00,CLR,,0.00,0.0,WeatherDisplay:10.37,2015-08-02 05:02:00,
2015-08-02 01:07:00,68.7,58.5,29.90,South,180,0.0,0.0,70,0.00,CLR,,0.00,0.0,WeatherDisplay:10.37,2015-08-02 05:07:00,
2015-08-02 01:12:00,68.5,58.4,29.90,South,180,0.0,0.0,70,0.00,CLR,,0.00,0.0,WeatherDisplay:10.37,2015-08-02 05:12:00,
2015-08-02 01:17:00,68.4,58.2,29.91,SW,225,1.2,0.0,70,0.00,CLR,,0.00,0.0,WeatherDisplay:10.37,2015-08-02 05:17:00,
2015-08-02 01:22:00,68.2,58.4,29.91,SW,225,0.0,0.0,71,0.00,CLR,,0.00,0.0,WeatherDisplay:10.37,2015-08-02 05:22:00,
2015-08-02 01:27:00,68.0,58.2,29.90,SW,225,0.0,0.0,71,0.00,CLR,,0.00,0.0,WeatherDisplay:10.37,2015-08-02 05:27:00,
2015-08-02 01:32:00,68.0,58.2,29.90,SW,225,0.0,0.0,71,0.00,CLR,,0.00,0.0,WeatherDisplay:10.37,2015-08-02 05:32:00,
2015-08-02 01:37:00,68.0,58.2,29.91,SW,225,0.0,0.0,71,0.00,CLR,,0.00,0.0,WeatherDisplay:10.37,2015-08-02 05:37:00,
2015-08-02 01:42:00,68.0,58.2,29.90,South,180,0.0,0.0,71,0.00,CLR,,0.00,0.0,WeatherDisplay:10.37,2015-08-02 05:42:00,
2015-08-02 01:47:00,68.0,58.6,29.90,South,180,1.6,0.0,72,0.00,CLR,,0.00,0.0,WeatherDisplay:10.37,2015-08-02 05:47:00,
2015-08-02 01:52:00,68.2,58.4,29.90,SW,225,2.3,2.3,71,0.00,CLR,,0.00,0.0,WeatherDisplay:10.37,2015-08-02 05:52:00,
2015-08-02 01:57:00,68.2,58.4,29.91,South,180,1.2,0.0,71,0.00,CLR,,0.00,0.0,WeatherDisplay:10.37,2015-08-02 05:57:00,
2015-08-02 02:02:00,68.4,58.2,29.91,SW,225,1.2,1.2,70,0.00,CLR,,0.00,0.0,WeatherDisplay:10.37,2015-08-02 06:02:00,
2015-08-02 02:07:00,68.5,58.0,29.90,NW,315,0.0,0.0,69,0.00,CLR,,0.00,0.0,WeatherDisplay:10.37,2015-08-02 06:07:00,
2015-08-02 02:12:00,68.5,58.0,29.90,SW,225,0.0,0.0,69,0.00,CLR,,0.00,0.0,WeatherDisplay:10.37,2015-08-02 06:12:00,
2015-08-02 02:17:00,68.5,58.0,29.91,South,180,1.2,0.0,69,0.00,CLR,,0.00,0.0,WeatherDisplay:10.37,2015-08-02 06:17:00,
2015-08-02 02:22:00,68.5,58.8,29.91,SSW,202,1.2,1.2,71,0.00,CLR,,0.00,0.0,WeatherDisplay:10.37,2015-08-02 06:22:00,
2015-08-02 02:27:00,68.5,58.8,29.91,West,270,1.2,0.0,71,0.00,CLR,,0.00,0.0,WeatherDisplay:10.37,2015-08-02 06:27:00,
2015-08-02 02:32:00,68.7,58.9,29.91,SSW,202,1.2,1.2,71,0.00,CLR,,0.00,0.0,WeatherDisplay:10.37,2015-08-02 06:32:00,
2015-08-02 02:37:00,68.7,58.9,29.91,South,180,1.2,1.2,71,0.00,CLR,,0.00,0.0,WeatherDisplay:10.37,2015-08-02 06:37:00,
2015-08-02 02:42:00,68.7,59.3,29.91,South,180,2.3,2.3,72,0.00,CLR,,0.00,0.0,WeatherDisplay:10.37,2015-08-02 06:42:00,
2015-08-02 02:47:00,68.7,59.7,29.91,SE,135,2.3,2.3,73,0.00,CLR,,0.00,0.0,WeatherDisplay:10.37,2015-08-02 06:47:00,
2015-08-02 02:52:00,68.7,59.7,29.91,SE,135,2.3,2.3,73,0.00,CLR,,0.00,0.0,WeatherDisplay:10.37,2015-08-02 06:52:00,
2015-08-02 02:57:00,68.5,59.5,29.91,South,180,2.3,2.3,73,0.00,CLR,,0.00,0.0,WeatherDisplay:10.37,2015-08-02 06:57:00,
2015-08-02 03:02:00,68.4,59.7,29.91,South,180,3.5,3.5,74,0.00,CLR,,0.00,0.0,WeatherDisplay:10.37,2015-08-02 07:02:00,
2015-08-02 03:07:00,68.4,59.7,29.91,South,180,2.3,2.3,74,0.00,CLR,,0.00,0.0,WeatherDisplay:10.37,2015-08-02 07:07:00,
2015-08-02 03:12:00,68.4,60.1,29.90,SW,225,3.5,3.5,75,0.00,CLR,,0.00,0.0,WeatherDisplay:10.37,2015-08-02 07:12:00,
2015-08-02 03:17:00,68.2,60.0,29.91,SW,225,1.2,0.0,75,0.00,CLR,,0.00,0.0,WeatherDisplay:10.37,2015-08-02 07:17:00,
2015-08-02 03:22:00,68.2,60.0,29.90,SSW,202,3.5,3.5,75,0.00,CLR,,0.00,0.0,WeatherDisplay:10.37,2015-08-02 07:22:00,
2015-08-02 03:27:00,68.2,60.0,29.91,SSE,158,3.5,3.5,75,0.00,CLR,,0.00,0.0,WeatherDisplay:10.37,2015-08-02 07:27:00,
2015-08-02 03:32:00,68.2,60.0,29.90,SE,135,1.2,1.2,75,0.00,CLR,,0.00,0.0,WeatherDisplay:10.37,2015-08-02 07:32:00,
2015-08-02 03:37:00,68.2,60.0,29.90,South,180,1.2,1.2,75,0.00,CLR,,0.00,0.0,WeatherDisplay:10.37,2015-08-02 07:37:00,
2015-08-02 03:42:00,68.0,60.2,29.90,South,180,1.2,0.0,76,0.00,CLR,,0.00,0.0,WeatherDisplay:10.37,2015-08-02 07:42:00,
2015-08-02 03:47:00,68.0,60.2,29.90,SW,225,2.3,2.3,76,0.00,CLR,,0.00,0.0,WeatherDisplay:10.37,2015-08-02 07:47:00,
2015-08-02 03:52:00,68.0,60.2,29.90,South,180,1.2,1.2,76,0.00,CLR,,0.00,0.0,WeatherDisplay:10.37,2015-08-02 07:52:00,
2015-08-02 03:57:00,68.0,60.2,29.90,South,180,2.3,2.3,76,0.00,CLR,,0.00,0.0,WeatherDisplay:10.37,2015-08-02 07:57:00,
2015-08-02 04:02:00,68.0,60.2,29.90,SW,225,3.5,3.5,76,0.00,CLR,,0.00,0.0,WeatherDisplay:10.37,2015-08-02 08:02:00,
2015-08-02 04:07:00,68.0,60.2,29.90,South,180,3.5,3.5,76,0.00,CLR,,0.00,0.0,WeatherDisplay:10.37,2015-08-02 08:07:00,
2015-08-02 04:12:00,68.0,60.2,29.90,SSE,158,2.3,2.3,76,0.00,CLR,,0.00,0.0,WeatherDisplay:10.37,2015-08-02 08:12:00,
2015-08-02 04:17:00,68.0,60.2,29.90,SW,225,3.5,3.5,76,0.00,CLR,,0.00,0.0,WeatherDisplay:10.37,2015-08-02 08:17:00,
2015-08-02 04:22:00,68.0,60.2,29.90,SE,135,1.2,1.2,76,0.00,CLR,,0.00,0.0,WeatherDisplay:10.37,2015-08-02 08:22:00,
2015-08-02 04:27:00,67.8,60.7,29.90,West,270,3.5,3.5,78,0.00,CLR,,0.00,0.0,WeatherDisplay:10.37,2015-08-02 08:27:00,
2015-08-02 04:32:00,67.6,60.5,29.90,SW,225,1.2,0.0,78,0.00,CLR,,0.00,0.0,WeatherDisplay:10.37,2015-08-02 08:32:00,
2015-08-02 04:37:00,67.6,60.5,29.90,SSW,202,2.3,2.3,78,0.00,CLR,,0.00,0.0,WeatherDisplay:10.37,2015-08-02 08:37:00,
2015-08-02 04:42:00,67.6,60.9,29.90,SE,135,1.2,0.0,79,0.00,CLR,,0.00,0.0,WeatherDisplay:10.37,2015-08-02 08:42:00,
2015-08-02 04:47:00,67.5,60.7,29.90,South,180,1.2,0.0,79,0.00,CLR,,0.00,0.0,WeatherDisplay:10.37,2015-08-02 08:47:00,
2015-08-02 04:52:00,67.3,60.5,29.89,South,180,1.2,1.6,79,0.00,CLR,,0.00,0.0,WeatherDisplay:10.37,2015-08-02 08:52:00,
2015-08-02 04:57:00,67.3,60.5,29.89,North,0,1.2,0.0,79,0.00,CLR,,0.00,0.0,WeatherDisplay:10.37,2015-08-02 08:57:00,
2015-08-02 05:02:00,67.1,60.4,29.89,South,180,1.2,0.0,79,0.00,CLR,,0.00,0.0,WeatherDisplay:10.37,2015-08-02 09:02:00,
2015-08-02 05:07:00,67.1,60.7,29.89,SW,225,2.3,2.3,80,0.00,CLR,,0.00,0.0,WeatherDisplay:10.37,2015-08-02 09:07:00,
2015-08-02 05:12:00,67.3,60.9,29.89,SW,225,1.2,1.2,80,0.00,CLR,,0.00,0.0,WeatherDisplay:10.37,2015-08-02 09:12:00,
2015-08-02 05:17:00,67.3,60.9,29.89,SE,135,1.2,1.2,80,0.00,CLR,,0.00,0.0,WeatherDisplay:10.37,2015-08-02 09:17:00,
2015-08-02 05:22:00,67.1,60.7,29.89,South,180,1.2,1.2,80,0.00,CLR,,0.00,0.0,WeatherDisplay:10.37,2015-08-02 09:22:00,
2015-08-02 05:27:00,67.3,60.5,29.89,South,180,2.3,2.3,79,0.00,CLR,,0.00,0.0,WeatherDisplay:10.37,2015-08-02 09:27:00,
2015-08-02 05:32:00,67.3,60.5,29.89,South,180,2.3,2.3,79,0.00,CLR,,0.00,0.0,WeatherDisplay:10.37,2015-08-02 09:32:00,
2015-08-02 05:37:00,67.1,60.4,29.88,South,180,1.2,1.2,79,0.00,CLR,,0.00,0.0,WeatherDisplay:10.37,2015-08-02 09:37:00,
2015-08-02 05:42:00,67.1,60.4,29.88,South,180,2.3,2.3,79,0.00,CLR,,0.00,0.0,WeatherDisplay:10.37,2015-08-02 09:42:00,
2015-08-02 05:47:00,66.9,60.5,29.88,SE,135,2.3,2.3,80,0.00,CLR,,0.00,0.0,WeatherDisplay:10.37,2015-08-02 09:47:00,
2015-08-02 05:52:00,66.7,60.4,29.88,South,180,1.2,0.0,80,0.00,CLR,,0.00,0.0,WeatherDisplay:10.37,2015-08-02 09:52:00,
2015-08-02 05:57:00,66.4,60.0,29.88,South,180,1.2,0.0,80,0.00,CLR,,0.00,0.0,WeatherDisplay:10.37,2015-08-02 09:57:00,
2015-08-02 06:02:00,66.4,60.4,29.88,West,270,2.3,0.0,81,0.00,CLR,,0.00,0.0,WeatherDisplay:10.37,2015-08-02 10:02:00,
2015-08-02 06:07:00,66.2,60.2,29.88,North,0,0.0,0.0,81,0.00,CLR,,0.00,0.0,WeatherDisplay:10.37,2015-08-02 10:07:00,
2015-08-02 06:12:00,66.0,60.7,29.88,SW,225,1.2,0.0,83,0.00,CLR,,0.00,0.0,WeatherDisplay:10.37,2015-08-02 10:12:00,
2015-08-02 06:17:00,65.8,60.5,29.88,South,180,1.2,0.0,83,0.00,CLR,,0.00,0.0,WeatherDisplay:10.37,2015-08-02 10:17:00,
2015-08-02 06:22:00,65.8,60.5,29.88,South,180,1.2,1.2,83,0.00,CLR,,0.00,0.0,WeatherDisplay:10.37,2015-08-02 10:22:00,
2015-08-02 06:27:00,66.0,60.7,29.88,SE,135,2.3,0.0,83,0.00,CLR,,0.00,0.0,WeatherDisplay:10.37,2015-08-02 10:27:00,
2015-08-02 06:32:00,66.2,60.5,29.89,South,180,1.2,1.2,82,0.00,CLR,,0.00,0.0,WeatherDisplay:10.37,2015-08-02 10:32:00,
2015-08-02 06:37:00,66.0,60.7,29.88,SW,225,3.5,3.5,83,0.00,CLR,,0.00,0.0,WeatherDisplay:10.37,2015-08-02 10:37:00,
2015-08-02 06:42:00,66.0,61.0,29.89,South,180,1.2,0.0,84,0.00,CLR,,0.00,0.0,WeatherDisplay:10.37,2015-08-02 10:42:00,
2015-08-02 06:47:00,65.8,60.9,29.89,SW,225,2.3,0.0,84,0.00,CLR,,0.00,0.0,WeatherDisplay:10.37,2015-08-02 10:47:00,
2015-08-02 06:52:00,65.7,60.7,29.89,North,0,0.0,0.0,84,0.00,CLR,,0.00,0.0,WeatherDisplay:10.37,2015-08-02 10:52:00,
2015-08-02 06:57:00,65.7,60.7,29.89,South,180,1.2,1.6,84,0.00,CLR,,0.00,0.0,WeatherDisplay:10.37,2015-08-02 10:57:00,
2015-08-02 07:02:00,65.8,61.2,29.89,South,180,1.2,0.0,85,0.00,CLR,,0.00,0.0,WeatherDisplay:10.37,2015-08-02 11:02:00,
2015-08-02 07:07:00,66.0,61.0,29.89,SE,135,1.2,0.0,84,0.00,CLR,,0.00,0.0,WeatherDisplay:10.37,2015-08-02 11:07:00,
2015-08-02 07:12:00,66.0,60.7,29.89,NW,315,0.0,0.0,83,0.00,CLR,,0.00,0.0,WeatherDisplay:10.37,2015-08-02 11:12:00,
2015-08-02 07:17:00,66.2,60.5,29.89,NE,45,2.3,0.0,82,0.00,CLR,,0.00,0.0,WeatherDisplay:10.37,2015-08-02 11:17:00,
2015-08-02 07:22:00,66.4,60.4,29.89,SE,135,1.2,0.0,81,0.00,CLR,,0.00,0.0,WeatherDisplay:10.37,2015-08-02 11:22:00,
2015-08-02 07:27:00,66.6,60.5,29.89,SW,225,0.0,0.0,81,0.00,CLR,,0.00,0.0,WeatherDisplay:10.37,2015-08-02 11:27:00,
2015-08-02 07:32:00,66.7,60.7,29.89,South,180,0.0,0.0,81,0.00,CLR,,0.00,0.0,WeatherDisplay:10.37,2015-08-02 11:32:00,
2015-08-02 07:37:00,66.9,60.9,29.90,West,270,2.3,0.0,81,0.00,CLR,,0.00,0.0,WeatherDisplay:10.37,2015-08-02 11:37:00,
2015-08-02 07:42:00,67.3,60.9,29.90,NW,315,1.2,0.0,80,0.00,CLR,,0.00,0.0,WeatherDisplay:10.37,2015-08-02 11:42:00,
2015-08-02 07:47:00,68.0,60.5,29.90,SW,225,2.3,0.0,77,0.00,CLR,,0.00,0.0,WeatherDisplay:10.37,2015-08-02 11:47:00,
2015-08-02 07:52:00,68.2,60.3,29.90,NW,315,2.3,2.3,76,0.00,CLR,,0.00,0.0,WeatherDisplay:10.37,2015-08-02 11:52:00,
2015-08-02 07:57:00,68.5,60.3,29.90,NW,315,1.2,0.0,75,0.00,CLR,,0.00,0.0,WeatherDisplay:10.37,2015-08-02 11:57:00,
2015-08-02 08:02:00,68.9,60.3,29.90,SW,225,3.5,3.5,74,0.00,CLR,,0.00,0.0,WeatherDisplay:10.37,2015-08-02 12:02:00,
2015-08-02 08:07:00,69.6,60.6,29.91,West,270,1.2,0.0,73,0.00,CLR,,0.00,0.0,WeatherDisplay:10.37,2015-08-02 12:07:00,
2015-08-02 08:12:00,70.0,60.5,29.91,North,0,1.2,0.0,72,0.00,CLR,,0.00,0.0,WeatherDisplay:10.37,2015-08-02 12:12:00,
2015-08-02 08:17:00,70.3,60.5,29.91,South,180,3.5,3.5,71,0.00,CLR,,0.00,0.0,WeatherDisplay:10.37,2015-08-02 12:17:00,
2015-08-02 08:22:00,70.9,60.2,29.91,West,270,2.3,3.1,69,0.00,CLR,,0.00,0.0,WeatherDisplay:10.37,2015-08-02 12:22:00,
2015-08-02 08:27:00,71.1,60.0,29.91,East,90,1.2,0.0,68,0.00,CLR,,0.00,0.0,WeatherDisplay:10.37,2015-08-02 12:27:00,
2015-08-02 08:32:00,71.8,59.8,29.91,West,270,3.5,0.0,66,0.00,CLR,,0.00,0.0,WeatherDisplay:10.37,2015-08-02 12:32:00,
2015-08-02 08:37:00,72.1,59.7,29.91,SW,225,1.2,3.1,65,0.00,CLR,,0.00,0.0,WeatherDisplay:10.37,2015-08-02 12:37:00,
2015-08-02 08:42:00,72.3,59.5,29.91,NE,45,3.5,0.0,64,0.00,CLR,,0.00,0.0,WeatherDisplay:10.37,2015-08-02 12:42:00,
2015-08-02 08:47:00,72.7,59.8,29.91,North,0,2.3,2.3,64,0.00,CLR,,0.00,0.0,WeatherDisplay:10.37,2015-08-02 12:47:00,
2015-08-02 08:52:00,72.9,60.4,29.91,NW,315,2.3,2.3,65,0.00,CLR,,0.00,0.0,WeatherDisplay:10.37,2015-08-02 12:52:00,
2015-08-02 08:57:00,73.0,60.1,29.91,North,0,1.2,1.2,64,0.00,CLR,,0.00,0.0,WeatherDisplay:10.37,2015-08-02 12:57:00,
2015-08-02 09:02:00,73.4,60.9,29.91,East,90,3.5,3.5,65,0.00,CLR,,0.00,0.0,WeatherDisplay:10.37,2015-08-02 13:02:00,
2015-08-02 09:07:00,73.8,60.8,29.91,SE,135,3.5,0.0,64,0.00,CLR,,0.00,0.0,WeatherDisplay:10.37,2015-08-02 13:07:00,
2015-08-02 09:12:00,74.1,60.7,29.91,WSW,248,5.8,0.0,63,0.00,CLR,,0.00,0.0,WeatherDisplay:10.37,2015-08-02 13:12:00,
2015-08-02 09:17:00,74.5,61.9,29.91,North,0,1.2,0.0,65,0.00,CLR,,0.00,0.0,WeatherDisplay:10.37,2015-08-02 13:17:00,
2015-08-02 09:22:00,74.7,60.8,29.91,North,0,1.2,1.2,62,0.00,CLR,,0.00,0.0,WeatherDisplay:10.37,2015-08-02 13:22:00,
2015-08-02 09:27:00,75.2,59.9,29.91,West,270,4.6,4.6,59,0.00,CLR,,0.00,0.0,WeatherDisplay:10.37,2015-08-02 13:27:00,
2015-08-02 09:32:00,75.4,59.1,29.91,East,90,3.5,3.5,57,0.00,CLR,,0.00,0.0,WeatherDisplay:10.37,2015-08-02 13:32:00,
2015-08-02 09:37:00,75.7,59.9,29.91,SSW,202,8.1,8.1,58,0.00,CLR,,0.00,0.0,WeatherDisplay:10.37,2015-08-02 13:37:00,
2015-08-02 09:42:00,76.1,59.8,29.91,SE,135,8.1,8.1,57,0.00,CLR,,0.00,0.0,WeatherDisplay:10.37,2015-08-02 13:42:00,
2015-08-02 09:47:00,76.5,60.6,29.91,SE,135,2.3,2.3,58,0.00,CLR,,0.00,0.0,WeatherDisplay:10.37,2015-08-02 13:47:00,
2015-08-02 09:52:00,77.0,60.1,29.91,NNE,22,1.2,1.2,56,0.00,CLR,,0.00,0.0,WeatherDisplay:10.37,2015-08-02 13:52:00,
2015-08-02 09:57:00,77.4,60.4,29.91,SE,135,3.5,3.5,56,0.00,CLR,,0.00,0.0,WeatherDisplay:10.37,2015-08-02 13:57:00,